sensor_id;sensor_type;location;lat;lon;timestamp;P1;durP1;ratioP1;P2;durP2;ratioP2
6580;SDS011;3324;50.796;7.228;2022-10-30T00:00:03;11.80;;;11.10;;
6580;SDS011;3324;50.796;7.228;2022-10-30T00:02:29;11.70;;;11.00;;
6580;SDS011;3324;50.796;7.228;2022-10-30T00:04:55;10.90;;;10.50;;
6580;SDS011;3324;50.796;7.228;2022-10-30T00:07:21;11.20;;;10.70;;
6580;SDS011;3324;50.796;7.228;2022-10-30T00:09:46;10.70;;;10.30;;
6580;SDS011;3324;50.796;7.228;2022-10-30T00:12:12;11.80;;;11.10;;
6580;SDS011;3324;50.796;7.228;2022-10-30T00:14:37;10.90;;;10.50;;
6580;SDS011;3324;50.796;7.228;2022-10-30T00:17:03;11.30;;;10.80;;
6580;SDS011;3324;50.796;7.228;2022-10-30T00:19:28;11.80;;;11.10;;
6580;SDS011;3324;50.796;7.228;2022-10-30T00:21:54;11.20;;;10.70;;
6580;SDS011;3324;50.796;7.228;2022-10-30T00:24:21;11.20;;;10.70;;
6580;SDS011;3324;50.796;7.228;2022-10-30T00:26:47;11.10;;;10.60;;
6580;SDS011;3324;50.796;7.228;2022-10-30T00:29:13;11.10;;;10.60;;
6580;SDS011;3324;50.796;7.228;2022-10-30T00:31:40;11.20;;;10.70;;
6580;SDS011;3324;50.796;7.228;2022-10-30T00:34:05;11.80;;;11.10;;
6580;SDS011;3324;50.796;7.228;2022-10-30T00:36:31;11.70;;;11.00;;
6580;SDS011;3324;50.796;7.228;2022-10-30T00:38:57;10.80;;;10.40;;
6580;SDS011;3324;50.796;7.228;2022-10-30T00:41:22;11.13;;;10.63;;
6580;SDS011;3324;50.796;7.228;2022-10-30T00:43:48;11.40;;;10.80;;
6580;SDS011;3324;50.796;7.228;2022-10-30T00:46:17;11.20;;;10.60;;
6580;SDS011;3324;50.796;7.228;2022-10-30T00:49:03;10.90;;;10.50;;
6580;SDS011;3324;50.796;7.228;2022-10-30T00:51:33;10.90;;;10.50;;
6580;SDS011;3324;50.796;7.228;2022-10-30T00:54:02;11.80;;;11.10;;
6580;SDS011;3324;50.796;7.228;2022-10-30T00:56:28;10.70;;;10.30;;
6580;SDS011;3324;50.796;7.228;2022-10-30T00:59:09;10.70;;;10.30;;
6580;SDS011;3324;50.796;7.228;2022-10-30T01:01:38;10.90;;;10.50;;
6580;SDS011;3324;50.796;7.228;2022-10-30T01:04:06;10.90;;;10.50;;
6580;SDS011;3324;50.796;7.228;2022-10-30T01:06:33;11.10;;;10.60;;
6580;SDS011;3324;50.796;7.228;2022-10-30T01:09:03;10.60;;;10.20;;
6580;SDS011;3324;50.796;7.228;2022-10-30T01:11:29;10.70;;;10.30;;
6580;SDS011;3324;50.796;7.228;2022-10-30T01:14:00;10.80;;;10.40;;
6580;SDS011;3324;50.796;7.228;2022-10-30T01:35:37;10.90;;;10.50;;
6580;SDS011;3324;50.796;7.228;2022-10-30T01:38:25;10.90;;;10.50;;
6580;SDS011;3324;50.796;7.228;2022-10-30T01:40:57;10.55;;;10.05;;
6580;SDS011;3324;50.796;7.228;2022-10-30T01:43:22;10.60;;;10.20;;
6580;SDS011;3324;50.796;7.228;2022-10-30T01:56:36;10.60;;;10.20;;
6580;SDS011;3324;50.796;7.228;2022-10-30T01:59:24;10.70;;;10.30;;
6580;SDS011;3324;50.796;7.228;2022-10-30T02:02:11;10.80;;;10.40;;
6580;SDS011;3324;50.796;7.228;2022-10-30T02:04:38;11.55;;;10.90;;
6580;SDS011;3324;50.796;7.228;2022-10-30T02:07:03;11.80;;;11.10;;
6580;SDS011;3324;50.796;7.228;2022-10-30T02:09:29;10.80;;;10.40;;
6580;SDS011;3324;50.796;7.228;2022-10-30T02:11:55;10.50;;;10.10;;
6580;SDS011;3324;50.796;7.228;2022-10-30T02:14:26;10.80;;;10.40;;
6580;SDS011;3324;50.796;7.228;2022-10-30T02:16:56;10.90;;;10.50;;
6580;SDS011;3324;50.796;7.228;2022-10-30T02:19:24;11.20;;;10.70;;
6580;SDS011;3324;50.796;7.228;2022-10-30T02:21:50;11.10;;;10.60;;
6580;SDS011;3324;50.796;7.228;2022-10-30T02:24:16;11.30;;;10.80;;
6580;SDS011;3324;50.796;7.228;2022-10-30T02:26:42;11.90;;;11.20;;
6580;SDS011;3324;50.796;7.228;2022-10-30T02:29:07;11.70;;;11.00;;
6580;SDS011;3324;50.796;7.228;2022-10-30T02:31:33;10.70;;;10.30;;
6580;SDS011;3324;50.796;7.228;2022-10-30T02:33:59;10.40;;;10.00;;
6580;SDS011;3324;50.796;7.228;2022-10-30T02:36:25;10.50;;;10.10;;
6580;SDS011;3324;50.796;7.228;2022-10-30T02:38:50;11.10;;;10.50;;
6580;SDS011;3324;50.796;7.228;2022-10-30T02:41:16;10.60;;;10.20;;
6580;SDS011;3324;50.796;7.228;2022-10-30T02:43:41;10.60;;;10.20;;
6580;SDS011;3324;50.796;7.228;2022-10-30T02:46:07;11.30;;;10.70;;
6580;SDS011;3324;50.796;7.228;2022-10-30T02:48:32;10.70;;;10.30;;
6580;SDS011;3324;50.796;7.228;2022-10-30T02:50:59;10.68;;;10.27;;
6580;SDS011;3324;50.796;7.228;2022-10-30T02:53:25;10.00;;;9.70;;
6580;SDS011;3324;50.796;7.228;2022-10-30T02:55:51;10.40;;;10.00;;
6580;SDS011;3324;50.796;7.228;2022-10-30T02:58:17;11.10;;;10.50;;
6580;SDS011;3324;50.796;7.228;2022-10-30T03:00:42;10.10;;;9.80;;
6580;SDS011;3324;50.796;7.228;2022-10-30T03:03:08;10.40;;;10.00;;
6580;SDS011;3324;50.796;7.228;2022-10-30T03:05:33;10.50;;;10.10;;
6580;SDS011;3324;50.796;7.228;2022-10-30T03:07:59;11.10;;;10.50;;
6580;SDS011;3324;50.796;7.228;2022-10-30T03:10:25;10.10;;;9.80;;
6580;SDS011;3324;50.796;7.228;2022-10-30T03:12:50;10.10;;;9.80;;
6580;SDS011;3324;50.796;7.228;2022-10-30T03:15:16;10.70;;;10.20;;
6580;SDS011;3324;50.796;7.228;2022-10-30T03:17:42;10.20;;;9.90;;
6580;SDS011;3324;50.796;7.228;2022-10-30T03:20:08;9.80;;;9.50;;
6580;SDS011;3324;50.796;7.228;2022-10-30T03:22:34;10.00;;;9.70;;
6580;SDS011;3324;50.796;7.228;2022-10-30T03:24:59;9.90;;;9.60;;
6580;SDS011;3324;50.796;7.228;2022-10-30T03:27:25;10.83;;;10.23;;
6580;SDS011;3324;50.796;7.228;2022-10-30T03:29:50;10.50;;;10.10;;
6580;SDS011;3324;50.796;7.228;2022-10-30T03:32:16;9.90;;;9.60;;
6580;SDS011;3324;50.796;7.228;2022-10-30T03:34:41;10.80;;;10.20;;
6580;SDS011;3324;50.796;7.228;2022-10-30T03:37:07;9.85;;;9.55;;
6580;SDS011;3324;50.796;7.228;2022-10-30T03:39:33;9.80;;;9.50;;
6580;SDS011;3324;50.796;7.228;2022-10-30T03:41:58;10.80;;;10.27;;
6580;SDS011;3324;50.796;7.228;2022-10-30T03:44:24;9.60;;;9.30;;
6580;SDS011;3324;50.796;7.228;2022-10-30T03:46:49;9.80;;;9.50;;
6580;SDS011;3324;50.796;7.228;2022-10-30T03:49:15;9.60;;;9.30;;
6580;SDS011;3324;50.796;7.228;2022-10-30T03:51:40;11.00;;;10.40;;
6580;SDS011;3324;50.796;7.228;2022-10-30T03:54:06;10.10;;;9.80;;
6580;SDS011;3324;50.796;7.228;2022-10-30T03:56:31;10.70;;;10.30;;
6580;SDS011;3324;50.796;7.228;2022-10-30T03:58:57;10.80;;;10.30;;
6580;SDS011;3324;50.796;7.228;2022-10-30T04:01:23;10.80;;;10.40;;
6580;SDS011;3324;50.796;7.228;2022-10-30T04:03:48;10.50;;;10.20;;
6580;SDS011;3324;50.796;7.228;2022-10-30T04:06:14;10.70;;;10.30;;
6580;SDS011;3324;50.796;7.228;2022-10-30T04:08:39;11.45;;;10.85;;
6580;SDS011;3324;50.796;7.228;2022-10-30T04:13:33;10.20;;;9.70;;
6580;SDS011;3324;50.796;7.228;2022-10-30T04:15:58;9.48;;;9.23;;
6580;SDS011;3324;50.796;7.228;2022-10-30T04:18:24;8.93;;;8.73;;
6580;SDS011;3324;50.796;7.228;2022-10-30T04:20:50;10.30;;;10.00;;
6580;SDS011;3324;50.796;7.228;2022-10-30T04:23:16;10.40;;;9.90;;
6580;SDS011;3324;50.796;7.228;2022-10-30T04:25:43;9.10;;;8.90;;
6580;SDS011;3324;50.796;7.228;2022-10-30T04:28:09;10.10;;;9.80;;
6580;SDS011;3324;50.796;7.228;2022-10-30T04:33:01;8.80;;;8.60;;
6580;SDS011;3324;50.796;7.228;2022-10-30T04:35:29;9.60;;;9.20;;
6580;SDS011;3324;50.796;7.228;2022-10-30T04:37:57;8.50;;;8.30;;
6580;SDS011;3324;50.796;7.228;2022-10-30T04:42:54;9.55;;;9.15;;
6580;SDS011;3324;50.796;7.228;2022-10-30T04:45:20;9.50;;;9.10;;
6580;SDS011;3324;50.796;7.228;2022-10-30T04:47:46;9.40;;;9.00;;
6580;SDS011;3324;50.796;7.228;2022-10-30T04:50:11;8.60;;;8.40;;
6580;SDS011;3324;50.796;7.228;2022-10-30T04:52:38;8.70;;;8.50;;
6580;SDS011;3324;50.796;7.228;2022-10-30T04:55:04;8.70;;;8.50;;
6580;SDS011;3324;50.796;7.228;2022-10-30T04:57:31;7.60;;;7.50;;
6580;SDS011;3324;50.796;7.228;2022-10-30T04:59:57;8.60;;;8.40;;
6580;SDS011;3324;50.796;7.228;2022-10-30T05:02:22;8.10;;;7.90;;
6580;SDS011;3324;50.796;7.228;2022-10-30T05:04:48;7.30;;;7.00;;
6580;SDS011;3324;50.796;7.228;2022-10-30T05:07:14;7.60;;;7.30;;
6580;SDS011;3324;50.796;7.228;2022-10-30T05:09:40;7.90;;;7.80;;
6580;SDS011;3324;50.796;7.228;2022-10-30T05:12:06;7.25;;;7.15;;
6580;SDS011;3324;50.796;7.228;2022-10-30T05:14:32;8.90;;;8.70;;
6580;SDS011;3324;50.796;7.228;2022-10-30T05:16:58;9.00;;;8.60;;
6580;SDS011;3324;50.796;7.228;2022-10-30T05:19:23;8.20;;;7.90;;
6580;SDS011;3324;50.796;7.228;2022-10-30T05:21:49;7.83;;;7.73;;
6580;SDS011;3324;50.796;7.228;2022-10-30T05:24:15;7.10;;;7.00;;
6580;SDS011;3324;50.796;7.228;2022-10-30T05:26:41;9.00;;;8.80;;
6580;SDS011;3324;50.796;7.228;2022-10-30T05:29:07;8.50;;;8.30;;
6580;SDS011;3324;50.796;7.228;2022-10-30T05:31:33;8.70;;;8.30;;
6580;SDS011;3324;50.796;7.228;2022-10-30T05:33:59;9.20;;;8.80;;
6580;SDS011;3324;50.796;7.228;2022-10-30T05:36:25;8.10;;;8.00;;
6580;SDS011;3324;50.796;7.228;2022-10-30T05:38:50;7.95;;;7.80;;
6580;SDS011;3324;50.796;7.228;2022-10-30T05:41:16;6.90;;;6.80;;
6580;SDS011;3324;50.796;7.228;2022-10-30T05:43:42;7.73;;;7.43;;
6580;SDS011;3324;50.796;7.228;2022-10-30T05:46:07;4.85;;;4.75;;
6580;SDS011;3324;50.796;7.228;2022-10-30T05:48:33;7.03;;;6.93;;
6580;SDS011;3324;50.796;7.228;2022-10-30T05:50:58;7.43;;;7.03;;
6580;SDS011;3324;50.796;7.228;2022-10-30T05:53:24;6.40;;;6.30;;
6580;SDS011;3324;50.796;7.228;2022-10-30T05:55:50;5.50;;;5.40;;
6580;SDS011;3324;50.796;7.228;2022-10-30T05:58:16;6.50;;;6.40;;
6580;SDS011;3324;50.796;7.228;2022-10-30T06:00:41;7.23;;;6.93;;
6580;SDS011;3324;50.796;7.228;2022-10-30T06:03:11;5.30;;;5.00;;
6580;SDS011;3324;50.796;7.228;2022-10-30T06:05:37;6.13;;;5.83;;
6580;SDS011;3324;50.796;7.228;2022-10-30T06:08:03;5.90;;;5.60;;
6580;SDS011;3324;50.796;7.228;2022-10-30T06:10:30;6.80;;;6.50;;
6580;SDS011;3324;50.796;7.228;2022-10-30T06:12:59;6.50;;;6.20;;
6580;SDS011;3324;50.796;7.228;2022-10-30T06:15:26;0.60;;;0.60;;
6580;SDS011;3324;50.796;7.228;2022-10-30T06:17:53;2.90;;;2.90;;
6580;SDS011;3324;50.796;7.228;2022-10-30T06:20:20;0.30;;;0.30;;
6580;SDS011;3324;50.796;7.228;2022-10-30T06:22:57;2.85;;;2.65;;
6580;SDS011;3324;50.796;7.228;2022-10-30T06:25:27;2.20;;;1.60;;
6580;SDS011;3324;50.796;7.228;2022-10-30T06:27:54;0.20;;;0.20;;
6580;SDS011;3324;50.796;7.228;2022-10-30T06:30:20;0.20;;;0.10;;
6580;SDS011;3324;50.796;7.228;2022-10-30T06:32:46;0.20;;;0.10;;
6580;SDS011;3324;50.796;7.228;2022-10-30T06:35:12;2.50;;;2.25;;
6580;SDS011;3324;50.796;7.228;2022-10-30T06:37:43;2.40;;;1.60;;
6580;SDS011;3324;50.796;7.228;2022-10-30T06:40:10;2.33;;;1.83;;
6580;SDS011;3324;50.796;7.228;2022-10-30T06:42:45;0.20;;;0.20;;
6580;SDS011;3324;50.796;7.228;2022-10-30T06:45:12;1.90;;;1.20;;
6580;SDS011;3324;50.796;7.228;2022-10-30T06:47:39;0.10;;;0.10;;
6580;SDS011;3324;50.796;7.228;2022-10-30T06:50:06;2.30;;;1.60;;
6580;SDS011;3324;50.796;7.228;2022-10-30T06:52:33;0.60;;;0.60;;
6580;SDS011;3324;50.796;7.228;2022-10-30T06:54:59;0.50;;;0.50;;
6580;SDS011;3324;50.796;7.228;2022-10-30T06:57:24;0.50;;;0.50;;
6580;SDS011;3324;50.796;7.228;2022-10-30T06:59:50;2.20;;;1.20;;
6580;SDS011;3324;50.796;7.228;2022-10-30T07:02:15;0.50;;;0.50;;
6580;SDS011;3324;50.796;7.228;2022-10-30T07:04:41;0.50;;;0.50;;
6580;SDS011;3324;50.796;7.228;2022-10-30T07:07:06;2.20;;;0.90;;
6580;SDS011;3324;50.796;7.228;2022-10-30T07:09:32;0.50;;;0.50;;
6580;SDS011;3324;50.796;7.228;2022-10-30T07:11:58;0.50;;;0.50;;
6580;SDS011;3324;50.796;7.228;2022-10-30T07:14:23;0.60;;;0.60;;
6580;SDS011;3324;50.796;7.228;2022-10-30T07:16:49;2.60;;;2.40;;
6580;SDS011;3324;50.796;7.228;2022-10-30T07:19:15;0.60;;;0.60;;
6580;SDS011;3324;50.796;7.228;2022-10-30T07:21:40;2.80;;;2.80;;
6580;SDS011;3324;50.796;7.228;2022-10-30T07:24:06;1.85;;;1.85;;
6580;SDS011;3324;50.796;7.228;2022-10-30T07:26:32;7.90;;;7.50;;
6580;SDS011;3324;50.796;7.228;2022-10-30T07:29:01;6.40;;;6.30;;
6580;SDS011;3324;50.796;7.228;2022-10-30T07:31:28;7.15;;;6.80;;
6580;SDS011;3324;50.796;7.228;2022-10-30T07:33:53;7.77;;;7.47;;
6580;SDS011;3324;50.796;7.228;2022-10-30T07:36:19;6.75;;;6.65;;
6580;SDS011;3324;50.796;7.228;2022-10-30T07:38:46;6.43;;;6.32;;
6580;SDS011;3324;50.796;7.228;2022-10-30T07:41:12;6.80;;;6.70;;
6580;SDS011;3324;50.796;7.228;2022-10-30T07:43:38;7.50;;;7.40;;
6580;SDS011;3324;50.796;7.228;2022-10-30T07:46:03;7.10;;;7.00;;
6580;SDS011;3324;50.796;7.228;2022-10-30T07:48:29;9.10;;;8.70;;
6580;SDS011;3324;50.796;7.228;2022-10-30T07:50:55;7.30;;;7.20;;
6580;SDS011;3324;50.796;7.228;2022-10-30T07:53:20;8.70;;;8.50;;
6580;SDS011;3324;50.796;7.228;2022-10-30T07:55:46;8.70;;;8.50;;
6580;SDS011;3324;50.796;7.228;2022-10-30T07:58:12;9.60;;;9.20;;
6580;SDS011;3324;50.796;7.228;2022-10-30T08:00:37;8.77;;;8.57;;
6580;SDS011;3324;50.796;7.228;2022-10-30T08:03:03;8.80;;;8.60;;
6580;SDS011;3324;50.796;7.228;2022-10-30T08:05:29;8.80;;;8.60;;
6580;SDS011;3324;50.796;7.228;2022-10-30T08:07:54;9.70;;;9.30;;
6580;SDS011;3324;50.796;7.228;2022-10-30T08:10:20;8.70;;;8.50;;
6580;SDS011;3324;50.796;7.228;2022-10-30T08:12:45;9.20;;;9.00;;
6580;SDS011;3324;50.796;7.228;2022-10-30T08:15:12;8.70;;;8.50;;
6580;SDS011;3324;50.796;7.228;2022-10-30T08:17:42;10.50;;;10.00;;
6580;SDS011;3324;50.796;7.228;2022-10-30T08:20:11;10.40;;;10.10;;
6580;SDS011;3324;50.796;7.228;2022-10-30T08:25:12;10.20;;;9.90;;
6580;SDS011;3324;50.796;7.228;2022-10-30T08:27:39;10.20;;;9.90;;
6580;SDS011;3324;50.796;7.228;2022-10-30T08:30:13;10.40;;;10.10;;
6580;SDS011;3324;50.796;7.228;2022-10-30T08:32:38;10.20;;;9.90;;
6580;SDS011;3324;50.796;7.228;2022-10-30T08:35:04;10.10;;;9.80;;
6580;SDS011;3324;50.796;7.228;2022-10-30T08:37:30;11.10;;;10.50;;
6580;SDS011;3324;50.796;7.228;2022-10-30T08:39:55;10.20;;;9.90;;
6580;SDS011;3324;50.796;7.228;2022-10-30T08:42:21;9.80;;;9.50;;
6580;SDS011;3324;50.796;7.228;2022-10-30T08:44:46;10.10;;;9.80;;
6580;SDS011;3324;50.796;7.228;2022-10-30T08:47:12;11.10;;;10.50;;
6580;SDS011;3324;50.796;7.228;2022-10-30T08:49:37;10.07;;;9.77;;
6580;SDS011;3324;50.796;7.228;2022-10-30T08:52:06;9.80;;;9.50;;
6580;SDS011;3324;50.796;7.228;2022-10-30T08:54:33;10.20;;;9.90;;
6580;SDS011;3324;50.796;7.228;2022-10-30T08:56:58;11.40;;;10.80;;
6580;SDS011;3324;50.796;7.228;2022-10-30T08:59:24;10.80;;;10.40;;
6580;SDS011;3324;50.796;7.228;2022-10-30T09:01:49;10.70;;;10.30;;
6580;SDS011;3324;50.796;7.228;2022-10-30T09:04:15;11.60;;;10.90;;
6580;SDS011;3324;50.796;7.228;2022-10-30T09:06:40;10.70;;;10.30;;
6580;SDS011;3324;50.796;7.228;2022-10-30T09:09:06;10.70;;;10.30;;
6580;SDS011;3324;50.796;7.228;2022-10-30T09:11:32;10.90;;;10.50;;
6580;SDS011;3324;50.796;7.228;2022-10-30T09:13:57;11.67;;;10.97;;
6580;SDS011;3324;50.796;7.228;2022-10-30T09:16:23;11.30;;;10.80;;
6580;SDS011;3324;50.796;7.228;2022-10-30T09:18:48;10.90;;;10.50;;
6580;SDS011;3324;50.796;7.228;2022-10-30T09:21:14;11.50;;;10.80;;
6580;SDS011;3324;50.796;7.228;2022-10-30T09:23:41;11.40;;;10.90;;
6580;SDS011;3324;50.796;7.228;2022-10-30T09:26:07;11.80;;;11.10;;
6580;SDS011;3324;50.796;7.228;2022-10-30T09:28:33;10.80;;;10.40;;
6580;SDS011;3324;50.796;7.228;2022-10-30T09:31:00;11.10;;;10.60;;
6580;SDS011;3324;50.796;7.228;2022-10-30T09:33:25;11.20;;;10.70;;
6580;SDS011;3324;50.796;7.228;2022-10-30T09:35:51;10.90;;;10.50;;
6580;SDS011;3324;50.796;7.228;2022-10-30T09:38:17;12.07;;;11.37;;
6580;SDS011;3324;50.796;7.228;2022-10-30T09:54:16;12.00;;;11.20;;
6580;SDS011;3324;50.796;7.228;2022-10-30T09:56:52;11.30;;;10.80;;
6580;SDS011;3324;50.796;7.228;2022-10-30T10:05:08;11.30;;;10.80;;
6580;SDS011;3324;50.796;7.228;2022-10-30T10:08:03;12.10;;;11.30;;
6580;SDS011;3324;50.796;7.228;2022-10-30T10:13:03;11.40;;;10.90;;
6580;SDS011;3324;50.796;7.228;2022-10-30T10:15:39;12.00;;;11.20;;
6580;SDS011;3324;50.796;7.228;2022-10-30T10:21:23;11.50;;;10.90;;
6580;SDS011;3324;50.796;7.228;2022-10-30T10:23:51;12.85;;;11.95;;
6580;SDS011;3324;50.796;7.228;2022-10-30T10:29:25;12.30;;;11.60;;
6580;SDS011;3324;50.796;7.228;2022-10-30T10:37:49;11.70;;;11.10;;
6580;SDS011;3324;50.796;7.228;2022-10-30T10:40:27;12.77;;;12.07;;
6580;SDS011;3324;50.796;7.228;2022-10-30T10:43:11;12.30;;;11.60;;
6580;SDS011;3324;50.796;7.228;2022-10-30T10:48:30;11.60;;;11.00;;
6580;SDS011;3324;50.796;7.228;2022-10-30T10:53:52;12.80;;;11.90;;
6580;SDS011;3324;50.796;7.228;2022-10-30T10:56:24;12.60;;;11.90;;
6580;SDS011;3324;50.796;7.228;2022-10-30T10:58:59;12.10;;;11.40;;
6580;SDS011;3324;50.796;7.228;2022-10-30T11:01:39;13.70;;;12.70;;
6580;SDS011;3324;50.796;7.228;2022-10-30T11:04:11;12.40;;;11.70;;
6580;SDS011;3324;50.796;7.228;2022-10-30T11:06:45;13.20;;;12.30;;
6580;SDS011;3324;50.796;7.228;2022-10-30T11:11:44;12.25;;;11.55;;
6580;SDS011;3324;50.796;7.228;2022-10-30T11:14:15;12.40;;;11.70;;
6580;SDS011;3324;50.796;7.228;2022-10-30T11:16:59;13.30;;;12.50;;
6580;SDS011;3324;50.796;7.228;2022-10-30T11:19:37;12.65;;;11.95;;
6580;SDS011;3324;50.796;7.228;2022-10-30T11:22:03;12.90;;;12.10;;
6580;SDS011;3324;50.796;7.228;2022-10-30T11:24:52;13.40;;;12.40;;
6580;SDS011;3324;50.796;7.228;2022-10-30T11:27:27;12.70;;;12.00;;
6580;SDS011;3324;50.796;7.228;2022-10-30T11:29:58;14.00;;;12.90;;
6580;SDS011;3324;50.796;7.228;2022-10-30T11:32:29;13.70;;;12.90;;
6580;SDS011;3324;50.796;7.228;2022-10-30T11:37:35;12.43;;;11.73;;
6580;SDS011;3324;50.796;7.228;2022-10-30T11:42:37;13.10;;;12.30;;
6580;SDS011;3324;50.796;7.228;2022-10-30T11:45:07;13.50;;;12.70;;
6580;SDS011;3324;50.796;7.228;2022-10-30T11:47:48;14.55;;;13.45;;
6580;SDS011;3324;50.796;7.228;2022-10-30T11:50:16;13.43;;;12.63;;
6580;SDS011;3324;50.796;7.228;2022-10-30T11:52:57;13.90;;;12.90;;
6580;SDS011;3324;50.796;7.228;2022-10-30T11:55:45;13.20;;;12.40;;
6580;SDS011;3324;50.796;7.228;2022-10-30T12:00:58;13.30;;;12.50;;
6580;SDS011;3324;50.796;7.228;2022-10-30T12:03:37;13.70;;;12.90;;
6580;SDS011;3324;50.796;7.228;2022-10-30T12:06:25;15.60;;;14.00;;
6580;SDS011;3324;50.796;7.228;2022-10-30T12:11:43;14.00;;;13.10;;
6580;SDS011;3324;50.796;7.228;2022-10-30T12:14:19;14.70;;;13.70;;
6580;SDS011;3324;50.796;7.228;2022-10-30T12:16:47;13.70;;;12.80;;
6580;SDS011;3324;50.796;7.228;2022-10-30T12:19:17;14.60;;;13.50;;
6580;SDS011;3324;50.796;7.228;2022-10-30T12:21:49;14.80;;;13.80;;
6580;SDS011;3324;50.796;7.228;2022-10-30T12:26:46;15.10;;;14.10;;
6580;SDS011;3324;50.796;7.228;2022-10-30T12:29:15;13.90;;;13.00;;
6580;SDS011;3324;50.796;7.228;2022-10-30T12:34:27;14.20;;;13.30;;
6580;SDS011;3324;50.796;7.228;2022-10-30T12:42:24;14.70;;;13.70;;
6580;SDS011;3324;50.796;7.228;2022-10-30T12:47:48;15.40;;;14.20;;
6580;SDS011;3324;50.796;7.228;2022-10-30T12:50:22;15.20;;;14.10;;
6580;SDS011;3324;50.796;7.228;2022-10-30T12:55:37;16.03;;;14.73;;
6580;SDS011;3324;50.796;7.228;2022-10-30T12:58:13;15.30;;;14.20;;
6580;SDS011;3324;50.796;7.228;2022-10-30T13:01:00;15.37;;;14.27;;
6580;SDS011;3324;50.796;7.228;2022-10-30T13:03:38;15.60;;;14.50;;
6580;SDS011;3324;50.796;7.228;2022-10-30T13:06:12;16.10;;;14.80;;
6580;SDS011;3324;50.796;7.228;2022-10-30T13:12:04;16.40;;;15.00;;
6580;SDS011;3324;50.796;7.228;2022-10-30T13:14:18;15.50;;;14.40;;
6580;SDS011;3324;50.796;7.228;2022-10-30T13:16:46;15.60;;;14.50;;
6580;SDS011;3324;50.796;7.228;2022-10-30T13:19:14;16.20;;;14.90;;
6580;SDS011;3324;50.796;7.228;2022-10-30T13:21:48;15.40;;;14.30;;
6580;SDS011;3324;50.796;7.228;2022-10-30T13:26:50;15.50;;;14.40;;
6580;SDS011;3324;50.796;7.228;2022-10-30T13:40:45;15.00;;;14.00;;
6580;SDS011;3324;50.796;7.228;2022-10-30T13:46:29;15.90;;;14.60;;
6580;SDS011;3324;50.796;7.228;2022-10-30T13:49:14;15.70;;;14.40;;
6580;SDS011;3324;50.796;7.228;2022-10-30T13:52:13;16.05;;;14.75;;
6580;SDS011;3324;50.796;7.228;2022-10-30T13:54:53;15.30;;;14.20;;
6580;SDS011;3324;50.796;7.228;2022-10-30T14:02:43;15.20;;;14.00;;
6580;SDS011;3324;50.796;7.228;2022-10-30T14:05:27;13.90;;;13.00;;
6580;SDS011;3324;50.796;7.228;2022-10-30T14:10:57;15.00;;;14.00;;
6580;SDS011;3324;50.796;7.228;2022-10-30T14:18:44;14.40;;;13.50;;
6580;SDS011;3324;50.796;7.228;2022-10-30T14:21:41;14.70;;;13.70;;
6580;SDS011;3324;50.796;7.228;2022-10-30T14:24:15;15.70;;;14.10;;
6580;SDS011;3324;50.796;7.228;2022-10-30T14:26:48;14.90;;;13.70;;
6580;SDS011;3324;50.796;7.228;2022-10-30T14:32:47;14.00;;;13.10;;
6580;SDS011;3324;50.796;7.228;2022-10-30T14:39:55;14.00;;;13.10;;
6580;SDS011;3324;50.796;7.228;2022-10-30T14:42:50;13.80;;;12.90;;
6580;SDS011;3324;50.796;7.228;2022-10-30T14:48:14;14.30;;;13.40;;
6580;SDS011;3324;50.796;7.228;2022-10-30T14:56:40;14.50;;;13.50;;
6580;SDS011;3324;50.796;7.228;2022-10-30T15:01:43;14.30;;;13.40;;
6580;SDS011;3324;50.796;7.228;2022-10-30T15:07:26;14.30;;;13.40;;
6580;SDS011;3324;50.796;7.228;2022-10-30T15:15:14;14.20;;;13.30;;
6580;SDS011;3324;50.796;7.228;2022-10-30T15:17:45;13.40;;;12.60;;
6580;SDS011;3324;50.796;7.228;2022-10-30T15:20:20;14.10;;;13.20;;
6580;SDS011;3324;50.796;7.228;2022-10-30T15:22:50;13.65;;;12.80;;
6580;SDS011;3324;50.796;7.228;2022-10-30T15:25:19;14.00;;;13.10;;
6580;SDS011;3324;50.796;7.228;2022-10-30T15:27:48;14.93;;;13.43;;
6580;SDS011;3324;50.796;7.228;2022-10-30T15:30:17;14.00;;;13.00;;
6580;SDS011;3324;50.796;7.228;2022-10-30T15:32:52;14.20;;;13.10;;
6580;SDS011;3324;50.796;7.228;2022-10-30T15:35:19;14.10;;;13.10;;
6580;SDS011;3324;50.796;7.228;2022-10-30T15:37:59;13.18;;;12.38;;
6580;SDS011;3324;50.796;7.228;2022-10-30T15:40:26;12.60;;;11.90;;
6580;SDS011;3324;50.796;7.228;2022-10-30T15:42:52;13.40;;;12.60;;
6580;SDS011;3324;50.796;7.228;2022-10-30T15:45:24;13.93;;;12.93;;
6580;SDS011;3324;50.796;7.228;2022-10-30T15:50:36;13.00;;;12.20;;
6580;SDS011;3324;50.796;7.228;2022-10-30T15:53:17;12.40;;;11.70;;
6580;SDS011;3324;50.796;7.228;2022-10-30T15:55:44;13.40;;;12.60;;
6580;SDS011;3324;50.796;7.228;2022-10-30T15:58:12;13.60;;;12.60;;
6580;SDS011;3324;50.796;7.228;2022-10-30T16:00:41;13.30;;;12.40;;
6580;SDS011;3324;50.796;7.228;2022-10-30T16:03:20;13.30;;;12.50;;
6580;SDS011;3324;50.796;7.228;2022-10-30T16:05:45;12.60;;;11.70;;
6580;SDS011;3324;50.796;7.228;2022-10-30T16:08:13;11.20;;;10.60;;
6580;SDS011;3324;50.796;7.228;2022-10-30T16:10:40;11.53;;;10.93;;
6580;SDS011;3324;50.796;7.228;2022-10-30T16:13:17;11.90;;;11.30;;
6580;SDS011;3324;50.796;7.228;2022-10-30T16:15:45;12.20;;;11.50;;
6580;SDS011;3324;50.796;7.228;2022-10-30T16:18:21;12.40;;;11.70;;
6580;SDS011;3324;50.796;7.228;2022-10-30T16:21:16;12.40;;;11.70;;
6580;SDS011;3324;50.796;7.228;2022-10-30T16:23:49;12.20;;;11.50;;
6580;SDS011;3324;50.796;7.228;2022-10-30T16:26:35;12.10;;;11.40;;
6580;SDS011;3324;50.796;7.228;2022-10-30T16:29:16;11.90;;;11.20;;
6580;SDS011;3324;50.796;7.228;2022-10-30T16:31:48;12.90;;;12.00;;
6580;SDS011;3324;50.796;7.228;2022-10-30T16:34:18;11.40;;;10.80;;
6580;SDS011;3324;50.796;7.228;2022-10-30T16:37:02;12.40;;;11.60;;
6580;SDS011;3324;50.796;7.228;2022-10-30T16:39:29;12.00;;;11.40;;
6580;SDS011;3324;50.796;7.228;2022-10-30T16:41:56;12.00;;;11.30;;
6580;SDS011;3324;50.796;7.228;2022-10-30T16:44:33;12.00;;;11.30;;
6580;SDS011;3324;50.796;7.228;2022-10-30T16:47:21;13.10;;;12.20;;
6580;SDS011;3324;50.796;7.228;2022-10-30T16:49:55;11.85;;;11.25;;
6580;SDS011;3324;50.796;7.228;2022-10-30T16:52:30;12.20;;;11.50;;
6580;SDS011;3324;50.796;7.228;2022-10-30T16:55:12;11.60;;;11.00;;
6580;SDS011;3324;50.796;7.228;2022-10-30T16:57:46;13.40;;;12.40;;
6580;SDS011;3324;50.796;7.228;2022-10-30T17:00:27;12.30;;;11.60;;
6580;SDS011;3324;50.796;7.228;2022-10-30T17:02:54;13.20;;;12.30;;
6580;SDS011;3324;50.796;7.228;2022-10-30T17:05:28;12.20;;;11.50;;
6580;SDS011;3324;50.796;7.228;2022-10-30T17:10:59;12.20;;;11.40;;
6580;SDS011;3324;50.796;7.228;2022-10-30T17:16:29;11.20;;;10.70;;
6580;SDS011;3324;50.796;7.228;2022-10-30T17:18:57;11.00;;;10.50;;
6580;SDS011;3324;50.796;7.228;2022-10-30T17:21:43;11.90;;;11.30;;
6580;SDS011;3324;50.796;7.228;2022-10-30T17:24:17;11.90;;;11.30;;
6580;SDS011;3324;50.796;7.228;2022-10-30T17:26:52;11.40;;;10.80;;
6580;SDS011;3324;50.796;7.228;2022-10-30T17:32:04;11.57;;;10.97;;
6580;SDS011;3324;50.796;7.228;2022-10-30T17:34:39;12.32;;;11.63;;
6580;SDS011;3324;50.796;7.228;2022-10-30T17:37:05;11.40;;;10.80;;
6580;SDS011;3324;50.796;7.228;2022-10-30T17:39:31;12.17;;;11.37;;
6580;SDS011;3324;50.796;7.228;2022-10-30T17:41:56;12.50;;;11.80;;
6580;SDS011;3324;50.796;7.228;2022-10-30T17:44:22;12.10;;;11.50;;
6580;SDS011;3324;50.796;7.228;2022-10-30T17:46:49;12.18;;;11.50;;
6580;SDS011;3324;50.796;7.228;2022-10-30T17:51:48;11.10;;;10.60;;
6580;SDS011;3324;50.796;7.228;2022-10-30T17:54:13;11.90;;;11.10;;
6580;SDS011;3324;50.796;7.228;2022-10-30T17:56:39;11.30;;;10.70;;
6580;SDS011;3324;50.796;7.228;2022-10-30T17:59:04;11.50;;;10.90;;
6580;SDS011;3324;50.796;7.228;2022-10-30T18:01:31;11.30;;;10.70;;
6580;SDS011;3324;50.796;7.228;2022-10-30T18:03:57;12.30;;;11.50;;
6580;SDS011;3324;50.796;7.228;2022-10-30T18:06:23;11.50;;;10.90;;
6580;SDS011;3324;50.796;7.228;2022-10-30T18:08:51;11.80;;;11.20;;
6580;SDS011;3324;50.796;7.228;2022-10-30T18:11:18;11.38;;;10.80;;